Forest, Virginia
Current Conditions -  °F | °C
As of 2:54 AM on Saturday 25 Oct 2014 (Local Time) from KLYH Reporting Station
Clear Clear  
Wind Chill: 50°   Ceiling: Unl
Heat Index: 50°   Visibility: 10mi
Dew Point: 36°   Wind: 3mph
Humidity: 59%   Direction: 340°NNW
Pressure: 29.99"   Gusts: NA
Location:  37.36°N, 79.29°W
Report Text: KLYH 250654Z AUTO 34003KT 10SM CLR 10/02 A2999 RMK AO2 SLP153 T01000022 $
Loading
Personal Weather Stations






























Interactive Weather Map
Tropical Storm Tracking
New forecast layout! Learn more

10-Day Weather Forecast

Advertisements
Track Severe Weather on mobile